Time;durP1;ratioP1;P1;durP2;ratioP2;P2;SDS_P1;SDS_P2;PMS_P1;PMS_P2;Temp;Humidity;BMP_temperature;BMP_pressure;BME280_temperature;BME280_humidity;BME280_pressure;Samples;Min_cycle;Max_cycle;Signal;HPM_P1;HPM_P2
2022/09/12 00:01:30;;;;;;;8.97;7.23;;;;;;;17.94;60.04;98904.72;7006511;28;20217;-80
2022/09/12 00:04:51;;;;;;;8.93;7.53;;;;;;;17.56;60.46;98880.91;7006494;28;20263;-80
2022/09/12 00:08:15;;;;;;;8.60;7.70;;;;;;;17.68;60.24;98883.56;7005475;28;20271;-79
2022/09/12 00:11:37;;;;;;;12.03;7.27;;;;;;;17.68;60.49;98895.28;7011963;28;20286;-80
2022/09/12 00:14:59;;;;;;;8.80;7.90;;;;;;;17.57;60.34;98898.13;7022745;28;20237;-80
2022/09/12 00:18:20;;;;;;;8.57;7.77;;;;;;;17.35;60.72;98908.06;7005351;28;20223;-80
2022/09/12 00:21:42;;;;;;;8.17;7.47;;;;;;;17.23;61.23;98899.13;7004907;28;20204;-80
2022/09/12 00:25:06;;;;;;;10.83;7.93;;;;;;;17.27;61.45;98901.09;7004143;28;20297;-80
2022/09/12 00:28:27;;;;;;;9.73;7.20;;;;;;;17.17;61.27;98895.44;7003857;28;20202;-80
2022/09/12 00:31:49;;;;;;;8.80;8.00;;;;;;;17.18;61.58;98904.47;7005388;28;20264;-80
2022/09/12 00:35:10;;;;;;;8.70;7.87;;;;;;;17.43;61.33;98894.88;7004797;28;20203;-79
2022/09/12 00:38:32;;;;;;;8.37;7.60;;;;;;;17.22;60.97;98892.00;7002982;28;20214;-80
2022/09/12 00:41:55;;;;;;;9.77;7.83;;;;;;;17.26;61.62;98893.16;7004756;28;20249;-80
2022/09/12 00:45:23;;;;;;;11.20;7.97;;;;;;;17.21;61.83;98895.81;7004451;28;20282;-80
2022/09/12 00:48:48;;;;;;;9.13;7.87;;;;;;;16.87;61.53;98848.59;7003948;28;20660;-80
2022/09/12 00:52:11;;;;;;;8.50;7.70;;;;;;;17.04;61.32;98894.94;7004934;28;20689;-79
2022/09/12 00:55:35;;;;;;;8.13;7.37;;;;;;;16.97;61.69;98881.47;7004242;28;20720;-80
2022/09/12 00:59:01;;;;;;;10.47;7.93;;;;;;;17.63;60.00;98891.66;7004042;28;20301;-80
2022/09/12 01:02:23;;;;;;;10.03;7.40;;;;;;;17.24;59.76;98887.97;7005046;28;20225;-80
2022/09/12 01:05:50;;;;;;;9.80;7.73;;;;;;;17.04;60.94;98875.88;7006958;28;20700;-79
2022/09/12 01:09:14;;;;;;;9.23;8.33;;;;;;;16.91;61.67;98874.28;7003531;28;20287;-80
2022/09/12 01:12:38;;;;;;;8.50;7.70;;;;;;;16.83;61.50;98871.13;7004176;28;20806;-80
2022/09/12 01:16:02;;;;;;;10.37;7.83;;;;;;;16.79;61.78;98876.22;7002358;28;20228;-80
2022/09/12 01:19:47;;;;;;;9.40;8.30;;;;;;;16.71;61.84;98870.34;7002862;28;20203;-80
2022/09/12 01:23:34;;;;;;;11.63;7.90;;;;;;;16.68;62.14;98859.94;7003746;28;20244;-80
2022/09/12 01:27:17;;;;;;;9.03;8.13;;;;;;;16.80;61.70;98858.81;7003621;28;20252;-80
2022/09/12 01:30:46;;;;;;;11.33;7.77;;;;;;;16.67;61.93;98863.72;7003382;28;20245;-80
2022/09/12 01:34:18;;;;;;;8.80;8.00;;;;;;;16.94;60.79;98854.75;7003150;28;20281;-80
2022/09/12 01:37:44;;;;;;;9.20;8.03;;;;;;;16.96;61.14;98857.19;7002261;28;20232;-80
2022/09/12 01:41:11;;;;;;;9.43;7.90;;;;;;;16.71;60.92;98838.50;7003055;28;20205;-80
2022/09/12 01:44:36;;;;;;;10.40;7.97;;;;;;;16.66;60.55;98838.41;7003252;28;20242;-80
2022/09/12 01:48:05;;;;;;;7.87;7.17;;;;;;;16.76;61.15;98857.63;7001839;28;20308;-79
2022/09/12 01:51:29;;;;;;;8.67;7.77;;;;;;;16.87;60.69;98850.50;7003365;28;20189;-80
2022/09/12 01:54:54;;;;;;;7.83;7.00;;;;;;;17.15;59.66;98855.94;7002595;28;20223;-81
2022/09/12 01:58:18;;;;;;;7.83;7.13;;;;;;;17.07;59.38;98842.69;7002509;28;20254;-80
2022/09/12 02:01:44;;;;;;;8.57;7.53;;;;;;;17.00;59.97;98844.75;7002514;28;20297;-80
2022/09/12 02:05:09;;;;;;;12.17;7.97;;;;;;;16.53;61.05;98835.13;7002231;28;20308;-79
2022/09/12 02:08:33;;;;;;;7.80;7.07;;;;;;;16.89;60.03;98834.72;7002182;28;20284;-80
2022/09/12 02:11:57;;;;;;;9.50;7.40;;;;;;;16.97;59.22;98832.44;7002436;28;20239;-80
2022/09/12 02:15:22;;;;;;;8.63;7.83;;;;;;;16.89;59.25;98835.56;7001746;28;20657;-80
2022/09/12 02:18:46;;;;;;;8.40;7.60;;;;;;;16.64;60.41;98828.81;7002047;28;20281;-80
2022/09/12 02:22:13;;;;;;;8.40;7.23;;;;;;;16.44;61.32;98825.69;7002309;28;20630;-79
2022/09/12 02:25:38;;;;;;;8.30;6.97;;;;;;;16.59;60.53;98801.50;7001770;28;20318;-79
2022/09/12 02:28:59;;;;;;;10.10;7.87;;;;;;;16.64;60.12;98804.31;7001232;28;20247;-79
2022/09/12 02:32:27;;;;;;;9.23;7.77;;;;;;;16.80;59.48;98825.31;7001466;28;20212;-79
2022/09/12 02:35:53;;;;;;;11.13;8.10;;;;;;;16.50;60.42;98822.00;7001943;28;20364;-79
2022/09/12 02:39:18;;;;;;;10.10;8.20;;;;;;;16.35;61.21;98819.75;7000900;28;20215;-78
2022/09/12 02:42:40;;;;;;;9.43;7.70;;;;;;;16.23;62.30;98815.44;7001880;28;20199;-79
2022/09/12 02:46:01;;;;;;;10.47;8.40;;;;;;;16.16;61.71;98812.03;7001416;28;20239;-78
2022/09/12 02:49:23;;;;;;;9.83;8.17;;;;;;;16.34;61.44;98809.94;7001191;28;20292;-78
2022/09/12 02:52:45;;;;;;;8.63;7.43;;;;;;;16.74;60.27;98807.25;7001505;28;20733;-79
2022/09/12 02:56:11;;;;;;;9.70;8.30;;;;;;;16.30;60.61;98784.31;7001492;28;20325;-79
2022/09/12 02:59:32;;;;;;;7.97;7.17;;;;;;;16.41;61.00;98786.19;7001091;28;20206;-79
2022/09/12 03:03:07;;;;;;;8.93;7.80;;;;;;;16.32;60.96;98797.66;7006223;28;20269;-79
2022/09/12 03:06:33;;;;;;;9.23;7.57;;;;;;;16.19;61.10;98797.94;7021821;28;20252;-79
2022/09/12 03:10:01;;;;;;;8.93;8.03;;;;;;;16.22;61.27;98803.72;7039069;28;20182;-79
2022/09/12 03:13:29;;;;;;;9.40;7.90;;;;;;;15.94;62.02;98813.72;7035220;28;20279;-79
2022/09/12 03:16:57;;;;;;;8.33;7.23;;;;;;;16.07;62.03;98813.44;7034817;28;20632;-78
2022/09/12 03:20:22;;;;;;;8.53;7.73;;;;;;;15.89;60.99;98806.28;7033988;28;20279;-78
2022/09/12 03:23:48;;;;;;;11.47;8.93;;;;;;;16.11;61.41;98811.91;7034646;28;20280;-79
2022/09/12 03:27:13;;;;;;;10.40;7.80;;;;;;;16.17;61.19;98817.22;7035002;28;20711;-78
2022/09/12 03:30:39;;;;;;;9.37;8.27;;;;;;;16.28;61.00;98802.75;7034087;28;20196;-78
2022/09/12 03:34:01;;;;;;;11.77;7.53;;;;;;;16.03;61.23;98804.94;7034174;28;20198;-78
2022/09/12 03:37:22;;;;;;;9.90;7.77;;;;;;;16.19;60.98;98815.09;7034369;28;20312;-79
2022/09/12 03:40:45;;;;;;;8.90;8.00;;;;;;;15.91;60.34;98823.19;7033886;28;20245;-79
2022/09/12 03:44:06;;;;;;;9.30;7.30;;;;;;;15.93;61.65;98822.94;7034005;28;20274;-79
2022/09/12 03:47:29;;;;;;;9.67;8.67;;;;;;;15.64;62.91;98816.56;7034084;28;20231;-79
2022/09/12 03:50:51;;;;;;;11.80;8.13;;;;;;;15.32;62.53;98779.97;7033831;28;20268;-77
2022/09/12 03:54:12;;;;;;;8.50;7.57;;;;;;;15.86;62.05;98823.06;7033636;28;20215;-78
2022/09/12 03:57:34;;;;;;;8.93;8.10;;;;;;;15.55;62.41;98820.72;7032915;28;20233;-79
2022/09/12 04:00:55;;;;;;;10.57;8.73;;;;;;;15.92;61.30;98815.88;7033559;28;20295;-78
2022/09/12 04:04:18;;;;;;;8.77;7.97;;;;;;;16.00;61.25;98818.19;7033358;28;20252;-78
2022/09/12 04:07:40;;;;;;;8.93;8.03;;;;;;;15.95;60.79;98824.38;7032848;28;20242;-78
2022/09/12 04:11:05;;;;;;;8.43;7.57;;;;;;;15.76;61.71;98816.59;7032461;28;20237;-78
2022/09/12 04:14:26;;;;;;;9.77;8.67;;;;;;;15.47;62.28;98796.63;7031170;28;20206;-78
2022/09/12 04:17:48;;;;;;;10.67;8.40;;;;;;;15.40;62.49;98789.66;7031404;28;20317;-78
2022/09/12 04:21:12;;;;;;;9.27;8.40;;;;;;;15.44;62.39;98809.84;7031999;28;20273;-78
2022/09/12 04:24:34;;;;;;;9.33;8.30;;;;;;;15.55;62.62;98818.00;7032326;28;20252;-78
2022/09/12 04:27:55;;;;;;;11.53;8.10;;;;;;;15.64;61.32;98811.13;7030831;28;20255;-78
2022/09/12 04:31:19;;;;;;;10.17;8.00;;;;;;;15.56;62.04;98811.50;7032027;28;20205;-77
2022/09/12 04:34:41;;;;;;;8.70;7.83;;;;;;;15.76;61.41;98808.44;7032730;28;20222;-78
2022/09/12 04:38:03;;;;;;;8.37;7.63;;;;;;;15.65;61.43;98801.09;7032179;28;20362;-78
2022/09/12 04:41:27;;;;;;;9.33;8.10;;;;;;;15.40;62.02;98811.41;7033865;28;20249;-77
2022/09/12 04:44:49;;;;;;;8.73;7.83;;;;;;;15.43;62.41;98806.31;7034153;28;20303;-78
2022/09/12 04:48:10;;;;;;;10.90;8.37;;;;;;;15.58;62.06;98819.44;7033793;28;20364;-79
2022/09/12 04:51:33;;;;;;;9.13;8.17;;;;;;;15.51;61.54;98796.97;7034050;28;20647;-79
2022/09/12 04:54:56;;;;;;;9.27;7.83;;;;;;;15.83;60.75;98807.25;7033811;28;20274;-78
2022/09/12 04:58:17;;;;;;;9.33;7.83;;;;;;;15.91;60.35;98812.31;7033837;28;20360;-78
2022/09/12 05:01:39;;;;;;;9.10;8.20;;;;;;;15.64;61.12;98815.75;7033843;28;20262;-79
2022/09/12 05:05:01;;;;;;;10.27;7.50;;;;;;;15.53;61.08;98820.16;7032572;28;20247;-79
2022/09/12 05:08:22;;;;;;;9.03;8.10;;;;;;;15.41;61.83;98827.47;7000744;28;20302;-78
2022/09/12 05:11:45;;;;;;;8.90;8.00;;;;;;;15.43;60.21;98808.19;7018185;28;20196;-80
2022/09/12 05:15:08;;;;;;;8.70;7.90;;;;;;;15.57;60.42;98807.72;7010168;28;20289;-78
2022/09/12 05:18:31;;;;;;;9.63;8.27;;;;;;;15.55;60.83;98814.44;7004505;28;20269;-79
2022/09/12 05:21:52;;;;;;;10.00;8.33;;;;;;;15.32;61.80;98815.28;7022834;28;20277;-78
2022/09/12 05:25:14;;;;;;;10.03;7.93;;;;;;;15.29;61.87;98815.69;7031861;28;20316;-79
2022/09/12 05:28:38;;;;;;;9.20;7.73;;;;;;;15.61;60.58;98814.34;7031832;28;20205;-79
2022/09/12 05:31:59;;;;;;;9.87;7.30;;;;;;;15.46;61.09;98822.13;7033016;28;20274;-78
2022/09/12 05:35:21;;;;;;;8.97;7.67;;;;;;;15.37;61.27;98820.84;7004247;28;20599;-79
2022/09/12 05:38:43;;;;;;;11.03;8.00;;;;;;;15.35;61.70;98825.69;7004197;28;20233;-77
2022/09/12 05:42:05;;;;;;;9.00;8.10;;;;;;;15.58;61.52;98819.44;7003885;28;20353;-78
2022/09/12 05:45:28;;;;;;;10.07;8.57;;;;;;;15.42;61.57;98831.00;7003981;28;20233;-78
2022/09/12 05:48:50;;;;;;;11.33;8.87;;;;;;;15.48;61.93;98827.34;7003800;28;20309;-79
2022/09/12 05:52:11;;;;;;;8.93;8.03;;;;;;;15.61;61.56;98824.38;7003809;28;20280;-79
2022/09/12 05:55:33;;;;;;;9.33;8.37;;;;;;;15.90;61.68;98835.13;7004094;28;20322;-78
2022/09/12 05:58:57;;;;;;;8.87;7.97;;;;;;;16.44;59.81;98836.56;7002563;28;20204;-78
2022/09/12 06:02:20;;;;;;;10.70;8.23;;;;;;;16.35;59.78;98833.38;7004011;28;20270;-80
2022/09/12 06:05:41;;;;;;;9.80;8.80;;;;;;;16.68;59.56;98830.81;7006234;28;20229;-82
2022/09/12 06:09:04;;;;;;;8.70;7.90;;;;;;;16.95;59.27;98820.97;7008107;28;20200;-82
2022/09/12 06:12:28;;;;;;;9.80;7.80;;;;;;;17.53;58.22;98812.44;7006371;28;20207;-80
2022/09/12 06:15:51;;;;;;;8.67;7.87;;;;;;;17.99;55.71;98814.75;7004741;28;20225;-79
2022/09/12 06:19:15;;;;;;;9.33;8.43;;;;;;;17.91;57.24;98812.44;7018436;28;20654;-81
2022/09/12 06:22:37;;;;;;;7.80;7.10;;;;;;;18.17;57.06;98807.06;7023312;28;20202;-81
2022/09/12 06:25:59;;;;;;;10.17;8.47;;;;;;;18.33;55.54;98745.38;7043468;28;20252;-80
2022/09/12 06:29:20;;;;;;;8.10;7.30;;;;;;;18.58;55.53;98794.78;7013162;28;20829;-80
2022/09/12 06:32:42;;;;;;;9.00;8.17;;;;;;;18.65;56.17;98804.44;7032566;28;20242;-80
2022/09/12 06:36:07;;;;;;;9.97;7.23;;;;;;;18.86;55.68;98810.94;7031737;28;20232;-80
2022/09/12 06:39:30;;;;;;;8.87;7.97;;;;;;;18.56;56.81;98807.84;7015863;28;20696;-80
2022/09/12 06:42:51;;;;;;;9.60;7.63;;;;;;;19.01;56.36;98805.59;7010226;28;20292;-81
2022/09/12 06:46:13;;;;;;;9.40;8.43;;;;;;;19.12;55.94;98782.75;7033904;28;20316;-81
2022/09/12 06:49:35;;;;;;;8.80;7.97;;;;;;;20.00;53.67;98804.75;7033821;28;20235;-81
2022/09/12 06:52:58;;;;;;;8.03;7.33;;;;;;;20.15;55.21;98793.91;7031296;28;20208;-80
2022/09/12 06:56:21;;;;;;;10.03;7.90;;;;;;;20.43;54.21;98801.69;7004339;28;20253;-80
2022/09/12 06:59:42;;;;;;;9.13;7.40;;;;;;;20.63;52.86;98783.41;7003627;28;20604;-81
2022/09/12 07:03:04;;;;;;;8.07;7.27;;;;;;;20.58;53.90;98801.75;7003868;28;20235;-79
2022/09/12 07:06:30;;;;;;;8.70;7.90;;;;;;;20.97;53.12;98797.47;7002047;28;20233;-80
2022/09/12 07:09:53;;;;;;;7.43;6.77;;;;;;;21.56;51.69;98803.03;7001384;28;20185;-80
2022/09/12 07:13:14;;;;;;;8.57;7.47;;;;;;;21.47;51.96;98809.31;7000452;28;20212;-80
2022/09/12 07:16:36;;;;;;;8.13;7.43;;;;;;;21.29;52.12;98774.19;7002465;28;20633;-80
2022/09/12 07:19:58;;;;;;;8.33;7.57;;;;;;;21.54;51.37;98790.66;7002072;28;20219;-80
2022/09/12 07:23:20;;;;;;;7.97;7.27;;;;;;;21.39;52.06;98798.91;7002719;28;20295;-80
2022/09/12 07:26:43;;;;;;;9.27;7.13;;;;;;;22.00;50.83;98798.56;7003247;28;20803;-81
2022/09/12 07:30:06;;;;;;;7.13;6.43;;;;;;;22.26;50.30;98797.41;7000585;28;20207;-79
2022/09/12 07:33:28;;;;;;;6.90;6.20;;;;;;;21.82;50.65;98790.94;7001332;28;20304;-79
2022/09/12 07:36:50;;;;;;;7.30;6.70;;;;;;;22.64;49.37;98799.47;7001882;28;20236;-80
2022/09/12 07:40:11;;;;;;;21.37;10.63;;;;;;;23.80;48.39;98800.28;7000180;28;20217;-79
2022/09/12 07:43:34;;;;;;;14.30;8.43;;;;;;;24.14;46.91;98792.75;7014392;28;20350;-79
2022/09/12 07:46:55;;;;;;;7.23;5.53;;;;;;;24.45;45.62;98785.78;7001997;28;20750;-78
2022/09/12 07:50:18;;;;;;;6.97;6.23;;;;;;;24.26;45.61;98787.66;7005233;28;20237;-79
2022/09/12 07:53:42;;;;;;;6.73;6.23;;;;;;;24.68;45.59;98789.66;7006675;28;20269;-78
2022/09/12 07:57:03;;;;;;;5.83;5.33;;;;;;;25.08;44.99;98798.16;7019673;28;20238;-78
2022/09/12 08:00:34;;;;;;;6.93;6.43;;;;;;;25.03;45.35;98787.22;7032285;28;20347;-78
2022/09/12 08:03:57;;;;;;;7.10;6.40;;;;;;;24.25;47.66;98775.00;7033297;28;20307;-79
2022/09/12 08:07:19;;;;;;;6.70;6.10;;;;;;;24.52;45.39;98790.94;7032921;28;20272;-79
2022/09/12 08:10:40;;;;;;;6.97;5.87;;;;;;;25.21;45.73;98807.63;7032459;28;20684;-78
2022/09/12 08:14:04;;;;;;;6.27;5.67;;;;;;;25.15;44.46;98798.63;7026112;28;20209;-79
2022/09/12 08:17:27;;;;;;;7.13;6.43;;;;;;;25.02;45.07;98795.78;7032323;28;20239;-78
2022/09/12 08:20:49;;;;;;;6.50;5.40;;;;;;;25.27;44.59;98779.69;7032416;28;20239;-78
2022/09/12 08:24:12;;;;;;;6.00;4.67;;;;;;;25.61;44.01;98785.72;7019244;28;20205;-78
2022/09/12 08:27:33;;;;;;;7.43;4.87;;;;;;;25.82;42.40;98753.88;7018087;28;20292;-79
2022/09/12 08:30:55;;;;;;;7.80;5.10;;;;;;;26.30;42.05;98785.56;7015005;28;20303;-78
2022/09/12 08:34:18;;;;;;;5.20;4.70;;;;;;;25.47;43.96;98784.03;7031734;28;20227;-79
2022/09/12 08:37:39;;;;;;;5.07;4.60;;;;;;;25.67;44.21;98775.44;7032489;28;20227;-79
2022/09/12 08:41:05;;;;;;;4.63;4.23;;;;;;;25.84;42.25;98768.19;7035126;28;20201;-78
2022/09/12 08:44:46;;;;;;;5.53;5.03;;;;;;;26.35;41.68;98774.41;7012160;28;20198;-78
2022/09/12 08:48:09;;;;;;;4.73;4.37;;;;;;;25.77;42.30;98772.50;7002053;28;20359;-78
2022/09/12 08:51:34;;;;;;;4.97;4.07;;;;;;;26.09;42.05;98764.16;7003863;28;20344;-78
2022/09/12 08:54:56;;;;;;;4.40;4.10;;;;;;;25.11;43.77;98760.88;7004676;28;20221;-79
2022/09/12 08:58:19;;;;;;;4.23;3.93;;;;;;;26.13;42.32;98752.19;7003565;28;20233;-79
2022/09/12 09:01:44;;;;;;;4.20;3.80;;;;;;;25.78;42.70;98733.50;7032121;28;20209;-79
2022/09/12 09:05:15;;;;;;;4.17;3.60;;;;;;;26.32;43.12;98763.94;7031801;28;20228;-79
2022/09/12 09:08:55;;;;;;;4.13;3.67;;;;;;;27.27;38.83;98756.34;7032156;28;20192;-79
2022/09/12 09:12:23;;;;;;;4.10;3.80;;;;;;;25.23;42.58;98767.56;7032582;28;20185;-79
2022/09/12 09:15:52;;;;;;;4.50;3.77;;;;;;;26.29;40.96;98749.94;7031058;28;20801;-80
2022/09/12 09:19:17;;;;;;;4.20;3.80;;;;;;;26.74;40.99;98751.75;7034706;28;20201;-83
2022/09/12 09:22:43;;;;;;;4.20;3.90;;;;;;;25.88;42.21;98738.84;7032977;28;20263;-81
2022/09/12 09:26:08;;;;;;;3.13;2.90;;;;;;;27.26;39.77;98740.84;7030289;28;20360;-80
2022/09/12 09:29:33;;;;;;;4.73;3.27;;;;;;;27.18;38.22;98747.13;7004296;28;20203;-80
2022/09/12 09:32:56;;;;;;;3.57;3.27;;;;;;;26.66;39.17;98711.00;7005818;28;20199;-80
2022/09/12 09:36:21;;;;;;;10.83;8.87;;;;;;;26.92;39.46;98742.47;7008833;28;20769;-80
2022/09/12 09:39:50;;;;;;;3.37;3.03;;;;;;;25.87;41.17;98739.97;7017266;28;20219;-80
2022/09/12 09:43:18;;;;;;;3.47;3.17;;;;;;;27.28;38.83;98746.91;7009806;28;20289;-80
2022/09/12 09:46:40;;;;;;;4.00;2.80;;;;;;;28.70;36.35;98740.75;7003724;28;20339;-81
2022/09/12 09:50:02;;;;;;;3.57;2.80;;;;;;;28.46;35.66;98742.31;7030458;28;20252;-81
2022/09/12 09:53:33;;;;;;;3.57;3.27;;;;;;;27.12;38.33;98728.97;7031162;28;20196;-80
2022/09/12 09:56:56;;;;;;;2.93;2.73;;;;;;;27.29;37.99;98729.13;7030568;28;20302;-80
2022/09/12 10:00:29;;;;;;;3.40;2.63;;;;;;;27.11;37.50;98705.19;7003210;28;20241;-81
2022/09/12 10:03:52;;;;;;;3.23;2.93;;;;;;;27.00;36.96;98728.72;7020011;28;20614;-82
2022/09/12 10:07:18;;;;;;;3.90;2.93;;;;;;;28.31;36.32;98740.78;7029705;28;20269;-81
2022/09/12 10:10:53;;;;;;;3.20;2.90;;;;;;;27.41;37.34;98736.88;7030162;28;20680;-81
2022/09/12 10:14:35;;;;;;;6.00;2.63;;;;;;;28.78;35.42;98730.81;7030148;28;20575;-81
2022/09/12 10:17:58;;;;;;;2.63;2.43;;;;;;;30.37;31.83;98732.84;7030851;28;20247;-80
2022/09/12 10:21:29;;;;;;;3.10;2.80;;;;;;;28.70;35.38;98726.88;7028624;28;20211;-82
2022/09/12 10:24:52;;;;;;;5.70;2.80;;;;;;;28.90;34.56;98726.22;7027011;28;20578;-81
2022/09/12 10:28:25;;;;;;;4.43;2.83;;;;;;;29.28;33.25;98720.88;7014020;28;20700;-81
2022/09/12 10:31:50;;;;;;;3.20;1.80;;;;;;;28.38;30.89;98701.53;7030621;28;20573;-81
2022/09/12 10:35:19;;;;;;;2.30;2.20;;;;;;;28.61;31.64;98691.94;7037103;28;20211;-81
2022/09/12 10:38:49;;;;;;;2.27;2.17;;;;;;;29.77;29.48;98718.34;7030415;28;20650;-81
2022/09/12 10:42:14;;;;;;;2.57;2.33;;;;;;;29.98;28.14;98722.03;7031567;28;20896;-80
2022/09/12 10:45:37;;;;;;;2.30;2.10;;;;;;;30.89;27.67;98717.47;7031431;28;20258;-80
2022/09/12 10:49:24;;;;;;;2.37;1.77;;;;;;;30.36;25.51;98719.28;7020149;28;20219;-81
2022/09/12 10:52:46;;;;;;;1.87;1.77;;;;;;;30.61;26.28;98705.19;7003623;28;20189;-81
2022/09/12 10:56:10;;;;;;;2.23;2.07;;;;;;;30.76;27.47;98701.03;7021828;28;20732;-81
2022/09/12 10:59:43;;;;;;;3.07;2.00;;;;;;;31.22;25.32;98709.19;7030627;28;20198;-82
2022/09/12 11:03:14;;;;;;;2.00;1.90;;;;;;;30.69;26.03;98686.84;7031947;28;20235;-81
2022/09/12 11:06:40;;;;;;;2.17;1.97;;;;;;;31.33;25.66;98697.31;7030177;28;20696;-82
2022/09/12 11:10:12;;;;;;;2.00;1.70;;;;;;;31.81;25.18;98672.38;7026651;28;20348;-82
2022/09/12 11:13:49;;;;;;;2.17;1.70;;;;;;;31.54;25.77;98666.59;7030322;28;20203;-80
2022/09/12 11:17:20;;;;;;;1.77;1.67;;;;;;;31.19;25.98;98682.84;7031360;28;20681;-82
2022/09/12 11:21:00;;;;;;;2.03;1.93;;;;;;;30.59;26.80;98687.19;7030763;28;20292;-81
2022/09/12 11:24:30;;;;;;;1.70;1.60;;;;;;;31.13;25.60;98675.03;7015608;28;20209;-82
2022/09/12 11:28:03;;;;;;;2.23;2.10;;;;;;;30.73;26.34;98668.31;7019374;28;20253;-82
2022/09/12 11:31:46;;;;;;;1.70;1.60;;;;;;;30.93;26.43;98676.66;7028164;28;20236;-80
2022/09/12 11:35:16;;;;;;;1.80;1.70;;;;;;;30.96;27.14;98675.16;7017698;28;20295;-82
2022/09/12 11:38:50;;;;;;;1.80;1.70;;;;;;;31.02;26.30;98669.03;7007883;28;20231;-81
2022/09/12 11:42:16;;;;;;;1.70;1.60;;;;;;;30.86;25.70;98656.09;7008462;28;20269;-80
2022/09/12 11:45:43;;;;;;;1.97;1.80;;;;;;;31.19;26.02;98646.63;7011273;28;20226;-80
2022/09/12 11:49:12;;;;;;;1.70;1.60;;;;;;;30.27;27.43;98649.78;7037536;28;20192;-80
2022/09/12 11:52:36;;;;;;;2.87;1.67;;;;;;;30.10;27.74;98630.41;7035892;28;20205;-80
2022/09/12 11:56:04;;;;;;;2.13;2.00;;;;;;;30.35;28.70;98650.84;7018241;28;20319;-81
2022/09/12 11:59:33;;;;;;;1.80;1.70;;;;;;;30.14;26.62;98642.47;7008324;28;20283;-81
2022/09/12 12:03:00;;;;;;;1.80;1.70;;;;;;;30.57;27.07;98634.66;7008372;28;20212;-81
2022/09/12 12:06:25;;;;;;;2.13;1.80;;;;;;;29.42;27.05;98635.41;7012845;28;20362;-81
2022/09/12 12:09:51;;;;;;;1.70;1.60;;;;;;;30.05;27.02;98608.31;7036014;28;20210;-81
2022/09/12 12:13:18;;;;;;;1.43;1.43;;;;;;;31.60;26.01;98606.66;7036411;28;20248;-81
2022/09/12 12:16:41;;;;;;;1.90;1.80;;;;;;;31.18;26.60;98602.34;7025578;28;20722;-80
2022/09/12 12:20:05;;;;;;;1.60;1.50;;;;;;;30.52;26.91;98628.47;7032764;28;20207;-81
2022/09/12 12:23:30;;;;;;;3.27;1.60;;;;;;;30.76;26.72;98625.84;7038468;28;20211;-81
2022/09/12 12:26:57;;;;;;;2.17;2.07;;;;;;;31.61;25.47;98609.09;7038166;28;20227;-81
2022/09/12 12:31:04;;;;;;;2.20;2.10;;;;;;;31.33;25.79;98616.50;7037550;28;20244;-81
2022/09/12 12:34:30;;;;;;;2.23;1.90;;;;;;;30.94;26.18;98618.97;7038533;28;20669;-81
2022/09/12 12:37:55;;;;;;;1.80;1.60;;;;;;;30.73;25.69;98579.22;7036330;28;20316;-81
2022/09/12 12:41:43;;;;;;;1.53;1.43;;;;;;;31.32;25.08;98602.91;7009926;28;20206;-81
2022/09/12 12:45:43;;;;;;;1.67;1.57;;;;;;;31.97;24.96;98603.56;7010368;28;20214;-81
2022/09/12 12:49:09;;;;;;;1.80;1.70;;;;;;;32.02;24.85;98596.94;7023550;28;20597;-81
2022/09/12 12:52:32;;;;;;;1.67;1.47;;;;;;;32.09;24.13;98599.97;7043090;28;20652;-81
2022/09/12 12:55:55;;;;;;;1.67;1.57;;;;;;;31.93;25.01;98585.09;7040095;28;20285;-81
2022/09/12 12:59:20;;;;;;;1.73;1.63;;;;;;;31.55;25.02;98593.75;7007807;28;20291;-81
2022/09/12 13:02:52;;;;;;;1.50;1.40;;;;;;;30.14;26.02;98595.19;7031544;28;20210;-81
2022/09/12 13:06:31;;;;;;;1.90;1.77;;;;;;;30.14;26.35;98586.84;7034143;28;20284;-81
2022/09/12 13:09:53;;;;;;;1.43;1.43;;;;;;;31.13;26.43;98569.16;7035407;28;20223;-81
2022/09/12 13:13:23;;;;;;;2.03;1.60;;;;;;;31.72;25.04;98584.41;7032654;28;20219;-81
2022/09/12 13:16:53;;;;;;;1.80;1.70;;;;;;;30.52;25.57;98583.94;7035050;28;20260;-81
2022/09/12 13:20:19;;;;;;;1.97;1.73;;;;;;;30.27;25.96;98571.06;7034040;28;20299;-81
2022/09/12 13:23:41;;;;;;;1.53;1.33;;;;;;;31.10;25.40;98564.25;7035026;28;20275;-81
2022/09/12 13:27:03;;;;;;;1.80;1.63;;;;;;;31.38;24.37;98554.94;7034536;28;20254;-80
2022/09/12 13:30:27;;;;;;;4.10;1.67;;;;;;;31.57;24.76;98566.38;7034832;28;20239;-81
2022/09/12 13:33:51;;;;;;;1.83;1.70;;;;;;;32.03;24.62;98560.34;7034674;28;20206;-81
2022/09/12 13:37:24;;;;;;;1.77;1.67;;;;;;;32.04;24.66;98547.19;7012278;28;20280;-81
2022/09/12 13:40:56;;;;;;;1.60;1.50;;;;;;;30.31;25.63;98550.56;7025747;28;20236;-80
2022/09/12 13:44:20;;;;;;;1.70;1.60;;;;;;;29.73;26.62;98539.47;7032950;28;20207;-80
2022/09/12 13:47:44;;;;;;;1.60;1.50;;;;;;;29.39;27.36;98553.53;7032932;28;20367;-81
2022/09/12 13:51:07;;;;;;;2.67;1.50;;;;;;;29.03;27.54;98547.63;7032726;28;20205;-80
2022/09/12 13:54:29;;;;;;;1.70;1.60;;;;;;;29.28;27.56;98529.22;7019203;28;20194;-82
2022/09/12 13:57:57;;;;;;;1.50;1.40;;;;;;;28.79;27.80;98519.53;7005548;28;20789;-82
2022/09/12 14:01:18;;;;;;;1.77;1.67;;;;;;;30.50;26.77;98522.25;7006192;28;20688;-82
2022/09/12 14:08:22;;;;;;;1.70;1.60;;;;;;;30.80;25.83;98509.88;7012106;28;20706;-82
2022/09/12 14:11:44;;;;;;;3.23;1.63;;;;;;;30.48;26.70;98510.66;7033337;28;20201;-81
2022/09/12 14:15:08;;;;;;;1.67;1.57;;;;;;;31.19;26.20;98515.69;7032499;28;20267;-81
2022/09/12 14:18:33;;;;;;;2.70;1.67;;;;;;;31.25;25.82;98497.56;7030944;28;20954;-82
2022/09/12 14:21:56;;;;;;;1.53;1.43;;;;;;;31.37;24.56;98510.72;7016399;28;20206;-82
2022/09/12 14:25:19;;;;;;;1.63;1.53;;;;;;;30.93;24.85;98498.44;7004409;28;20664;-82
2022/09/12 14:28:41;;;;;;;1.90;1.80;;;;;;;31.24;24.94;98484.81;7027455;28;20552;-82
2022/09/12 14:32:05;;;;;;;1.80;1.70;;;;;;;31.54;25.32;98497.34;7031711;28;20710;-83
2022/09/12 14:35:27;;;;;;;1.67;1.57;;;;;;;30.86;26.34;98489.84;7031611;28;20204;-83
2022/09/12 14:38:52;;;;;;;1.70;1.60;;;;;;;31.02;26.43;98489.97;7031420;28;20655;-82
2022/09/12 14:42:17;;;;;;;1.90;1.80;;;;;;;31.28;25.70;98490.50;7037949;28;20194;-83
2022/09/12 14:45:38;;;;;;;1.80;1.70;;;;;;;30.99;25.52;98480.34;7031440;28;20217;-83
2022/09/12 14:49:07;;;;;;;2.10;1.90;;;;;;;31.02;25.62;98492.75;7029409;28;20230;-83
2022/09/12 14:52:31;;;;;;;2.30;1.43;;;;;;;30.53;26.64;98502.91;7031238;28;20216;-83
2022/09/12 14:55:58;;;;;;;1.53;1.43;;;;;;;30.25;25.48;98492.69;7031675;28;20236;-82
2022/09/12 14:59:24;;;;;;;1.73;1.63;;;;;;;30.79;25.74;98489.56;7036657;28;20236;-82
2022/09/12 15:02:45;;;;;;;1.70;1.60;;;;;;;30.93;24.61;98494.81;7036874;28;20212;-82
2022/09/12 15:06:21;;;;;;;1.60;1.50;;;;;;;30.66;24.91;98454.50;7036788;28;20284;-82
2022/09/12 15:09:43;;;;;;;2.70;1.60;;;;;;;29.53;25.39;98490.22;7036296;28;20201;-82
2022/09/12 15:13:18;;;;;;;1.70;1.60;;;;;;;29.36;26.69;98484.72;7036988;28;20197;-82
2022/09/12 15:16:39;;;;;;;1.83;1.47;;;;;;;30.51;25.39;98474.63;7036086;28;20226;-82
2022/09/12 15:20:02;;;;;;;2.40;1.40;;;;;;;30.82;25.49;98468.56;7037044;28;20241;-82
2022/09/12 15:23:44;;;;;;;2.20;1.60;;;;;;;30.57;25.82;98469.63;7037897;28;20210;-82
2022/09/12 15:27:09;;;;;;;2.57;2.43;;;;;;;30.15;26.02;98473.63;7033255;28;20261;-82
2022/09/12 15:30:32;;;;;;;1.47;1.40;;;;;;;30.18;25.79;98461.81;7031124;28;20205;-82
2022/09/12 15:33:54;;;;;;;1.50;1.40;;;;;;;30.07;25.93;98477.28;7038087;28;20295;-83
2022/09/12 15:37:17;;;;;;;2.43;1.60;;;;;;;30.20;26.46;98465.09;7014605;28;20784;-83
2022/09/12 15:40:38;;;;;;;1.80;1.70;;;;;;;30.15;25.67;98474.47;7010308;28;20195;-82
2022/09/12 15:44:00;;;;;;;2.80;1.63;;;;;;;29.78;26.31;98469.78;7013462;28;20267;-81
2022/09/12 15:47:23;;;;;;;2.00;1.80;;;;;;;29.74;26.87;98468.88;7017062;28;20620;-84
2022/09/12 15:50:44;;;;;;;16.80;6.80;;;;;;;30.09;27.18;98469.41;7050329;28;20340;-81
2022/09/12 15:54:06;;;;;;;1.80;1.70;;;;;;;29.93;26.83;98454.47;7026645;28;20274;-81
2022/09/12 15:57:27;;;;;;;1.63;1.53;;;;;;;29.37;27.16;98453.03;7026913;28;20229;-80
2022/09/12 16:00:49;;;;;;;1.67;1.57;;;;;;;30.34;25.62;98448.91;7013989;28;20653;-80
2022/09/12 16:04:20;;;;;;;1.70;1.60;;;;;;;30.28;26.41;98445.53;7036061;28;20212;-80
2022/09/12 16:07:43;;;;;;;1.70;1.60;;;;;;;29.62;26.77;98434.59;7005243;28;20228;-79